sensor_id;sensor_type;location;lat;lon;timestamp;temperature;humidity
37432;DHT22;23292;51.300;6.252;2022-10-16T00:00:57;12.60;99.90
37432;DHT22;23292;51.300;6.252;2022-10-16T00:03:24;12.70;99.90
37432;DHT22;23292;51.300;6.252;2022-10-16T00:05:59;12.70;99.90
37432;DHT22;23292;51.300;6.252;2022-10-16T00:08:27;12.60;99.90
37432;DHT22;23292;51.300;6.252;2022-10-16T00:10:59;12.60;99.90
37432;DHT22;23292;51.300;6.252;2022-10-16T00:13:26;12.60;99.90
37432;DHT22;23292;51.300;6.252;2022-10-16T00:15:55;12.50;99.90
37432;DHT22;23292;51.300;6.252;2022-10-16T00:18:23;12.60;99.90
37432;DHT22;23292;51.300;6.252;2022-10-16T00:20:51;12.60;99.90
37432;DHT22;23292;51.300;6.252;2022-10-16T00:23:18;12.50;99.90
37432;DHT22;23292;51.300;6.252;2022-10-16T00:25:45;12.50;99.90
37432;DHT22;23292;51.300;6.252;2022-10-16T00:28:20;12.50;99.90
37432;DHT22;23292;51.300;6.252;2022-10-16T00:30:47;12.50;99.90
37432;DHT22;23292;51.300;6.252;2022-10-16T00:33:14;12.60;99.90
37432;DHT22;23292;51.300;6.252;2022-10-16T00:35:41;12.50;99.90
37432;DHT22;23292;51.300;6.252;2022-10-16T00:38:08;12.60;99.90
37432;DHT22;23292;51.300;6.252;2022-10-16T00:40:34;12.60;99.90
37432;DHT22;23292;51.300;6.252;2022-10-16T00:43:31;12.80;99.90
37432;DHT22;23292;51.300;6.252;2022-10-16T00:45:51;12.50;99.90
37432;DHT22;23292;51.300;6.252;2022-10-16T00:48:18;12.60;99.90
37432;DHT22;23292;51.300;6.252;2022-10-16T00:50:45;12.50;99.90
37432;DHT22;23292;51.300;6.252;2022-10-16T00:53:12;12.60;99.90
37432;DHT22;23292;51.300;6.252;2022-10-16T00:55:39;12.50;99.90
37432;DHT22;23292;51.300;6.252;2022-10-16T00:58:08;12.50;99.90
37432;DHT22;23292;51.300;6.252;2022-10-16T01:00:35;12.50;99.90
37432;DHT22;23292;51.300;6.252;2022-10-16T01:03:21;12.50;99.90
37432;DHT22;23292;51.300;6.252;2022-10-16T01:09:21;12.40;99.90
37432;DHT22;23292;51.300;6.252;2022-10-16T01:12:13;12.40;99.90
37432;DHT22;23292;51.300;6.252;2022-10-16T01:14:54;12.30;99.90
37432;DHT22;23292;51.300;6.252;2022-10-16T01:17:51;12.30;99.90
37432;DHT22;23292;51.300;6.252;2022-10-16T01:20:31;12.20;99.90
37432;DHT22;23292;51.300;6.252;2022-10-16T01:31:19;12.10;99.90
37432;DHT22;23292;51.300;6.252;2022-10-16T01:33:53;12.10;99.90
37432;DHT22;23292;51.300;6.252;2022-10-16T01:36:27;12.00;99.90
37432;DHT22;23292;51.300;6.252;2022-10-16T01:38:56;12.00;99.90
37432;DHT22;23292;51.300;6.252;2022-10-16T01:41:43;12.00;99.90
37432;DHT22;23292;51.300;6.252;2022-10-16T01:44:16;12.00;99.90
37432;DHT22;23292;51.300;6.252;2022-10-16T01:46:46;12.00;99.90
37432;DHT22;23292;51.300;6.252;2022-10-16T01:49:14;12.10;99.90
37432;DHT22;23292;51.300;6.252;2022-10-16T01:51:45;12.10;99.90
37432;DHT22;23292;51.300;6.252;2022-10-16T01:54:14;12.30;99.90
37432;DHT22;23292;51.300;6.252;2022-10-16T01:56:43;12.30;99.90
37432;DHT22;23292;51.300;6.252;2022-10-16T01:59:18;12.30;99.90
37432;DHT22;23292;51.300;6.252;2022-10-16T02:01:50;12.20;99.90
37432;DHT22;23292;51.300;6.252;2022-10-16T02:04:28;12.20;99.90
37432;DHT22;23292;51.300;6.252;2022-10-16T02:06:56;12.10;99.90
37432;DHT22;23292;51.300;6.252;2022-10-16T02:09:23;12.00;99.90
37432;DHT22;23292;51.300;6.252;2022-10-16T02:11:53;12.00;99.90
37432;DHT22;23292;51.300;6.252;2022-10-16T02:14:21;12.00;99.90
37432;DHT22;23292;51.300;6.252;2022-10-16T02:16:51;11.90;99.90
37432;DHT22;23292;51.300;6.252;2022-10-16T02:19:18;11.90;99.90
37432;DHT22;23292;51.300;6.252;2022-10-16T02:21:59;11.90;99.90
37432;DHT22;23292;51.300;6.252;2022-10-16T02:24:52;11.90;99.90
37432;DHT22;23292;51.300;6.252;2022-10-16T02:27:47;11.80;99.90
37432;DHT22;23292;51.300;6.252;2022-10-16T02:30:25;11.90;99.90
37432;DHT22;23292;51.300;6.252;2022-10-16T02:32:54;11.90;99.90
37432;DHT22;23292;51.300;6.252;2022-10-16T02:35:23;11.90;99.90
37432;DHT22;23292;51.300;6.252;2022-10-16T02:37:50;11.90;99.90
37432;DHT22;23292;51.300;6.252;2022-10-16T02:40:18;11.90;99.90
37432;DHT22;23292;51.300;6.252;2022-10-16T02:42:52;11.90;99.90
37432;DHT22;23292;51.300;6.252;2022-10-16T02:45:20;12.00;99.90
37432;DHT22;23292;51.300;6.252;2022-10-16T02:47:47;12.00;99.90
37432;DHT22;23292;51.300;6.252;2022-10-16T02:50:14;12.00;99.90
37432;DHT22;23292;51.300;6.252;2022-10-16T02:52:41;12.00;99.90
37432;DHT22;23292;51.300;6.252;2022-10-16T02:55:08;11.90;99.90
37432;DHT22;23292;51.300;6.252;2022-10-16T02:57:35;12.00;99.90
37432;DHT22;23292;51.300;6.252;2022-10-16T03:00:04;11.90;99.90
37432;DHT22;23292;51.300;6.252;2022-10-16T03:02:31;12.00;99.90
37432;DHT22;23292;51.300;6.252;2022-10-16T03:04:58;12.00;99.90
37432;DHT22;23292;51.300;6.252;2022-10-16T03:07:25;12.00;99.90
37432;DHT22;23292;51.300;6.252;2022-10-16T03:09:52;12.00;99.90
37432;DHT22;23292;51.300;6.252;2022-10-16T03:12:19;12.00;99.90
37432;DHT22;23292;51.300;6.252;2022-10-16T03:14:46;12.00;99.90
37432;DHT22;23292;51.300;6.252;2022-10-16T03:17:13;12.00;99.90
37432;DHT22;23292;51.300;6.252;2022-10-16T03:19:40;12.00;99.90
37432;DHT22;23292;51.300;6.252;2022-10-16T03:22:06;12.00;99.90
37432;DHT22;23292;51.300;6.252;2022-10-16T03:24:33;12.00;99.90
37432;DHT22;23292;51.300;6.252;2022-10-16T03:27:00;12.00;99.90
37432;DHT22;23292;51.300;6.252;2022-10-16T03:29:27;12.00;99.90
37432;DHT22;23292;51.300;6.252;2022-10-16T03:31:56;12.00;99.90
37432;DHT22;23292;51.300;6.252;2022-10-16T03:34:23;12.00;99.90
37432;DHT22;23292;51.300;6.252;2022-10-16T03:36:49;11.90;99.90
37432;DHT22;23292;51.300;6.252;2022-10-16T03:39:16;11.90;99.90
37432;DHT22;23292;51.300;6.252;2022-10-16T03:41:43;11.80;99.90
37432;DHT22;23292;51.300;6.252;2022-10-16T03:44:10;11.90;99.90
37432;DHT22;23292;51.300;6.252;2022-10-16T03:46:37;11.90;99.90
37432;DHT22;23292;51.300;6.252;2022-10-16T03:49:04;11.90;99.90
37432;DHT22;23292;51.300;6.252;2022-10-16T03:51:35;11.90;99.90
37432;DHT22;23292;51.300;6.252;2022-10-16T03:54:02;11.90;99.90
37432;DHT22;23292;51.300;6.252;2022-10-16T03:56:29;11.90;99.90
37432;DHT22;23292;51.300;6.252;2022-10-16T03:58:55;12.00;99.90
37432;DHT22;23292;51.300;6.252;2022-10-16T04:01:22;11.90;99.90
37432;DHT22;23292;51.300;6.252;2022-10-16T04:03:49;11.90;99.90
37432;DHT22;23292;51.300;6.252;2022-10-16T04:06:16;11.90;99.90
37432;DHT22;23292;51.300;6.252;2022-10-16T04:08:43;11.90;99.90
37432;DHT22;23292;51.300;6.252;2022-10-16T04:11:10;11.90;99.90
37432;DHT22;23292;51.300;6.252;2022-10-16T04:13:37;11.90;99.90
37432;DHT22;23292;51.300;6.252;2022-10-16T04:16:04;11.80;99.90
37432;DHT22;23292;51.300;6.252;2022-10-16T04:18:30;11.80;99.90
37432;DHT22;23292;51.300;6.252;2022-10-16T04:21:03;11.90;99.90
37432;DHT22;23292;51.300;6.252;2022-10-16T04:23:30;11.90;99.90
37432;DHT22;23292;51.300;6.252;2022-10-16T04:25:57;11.90;99.90
37432;DHT22;23292;51.300;6.252;2022-10-16T04:28:23;11.90;99.90
37432;DHT22;23292;51.300;6.252;2022-10-16T04:30:50;11.90;99.90
37432;DHT22;23292;51.300;6.252;2022-10-16T04:33:17;11.90;99.90
37432;DHT22;23292;51.300;6.252;2022-10-16T04:35:44;11.90;99.90
37432;DHT22;23292;51.300;6.252;2022-10-16T04:38:10;11.90;99.90
37432;DHT22;23292;51.300;6.252;2022-10-16T04:40:37;11.80;99.90
37432;DHT22;23292;51.300;6.252;2022-10-16T04:43:04;11.80;99.90
37432;DHT22;23292;51.300;6.252;2022-10-16T04:45:32;11.80;99.90
37432;DHT22;23292;51.300;6.252;2022-10-16T04:47:59;11.80;99.90
37432;DHT22;23292;51.300;6.252;2022-10-16T04:50:26;11.90;99.90
37432;DHT22;23292;51.300;6.252;2022-10-16T04:53:06;11.80;99.90
37432;DHT22;23292;51.300;6.252;2022-10-16T04:55:34;11.90;99.90
37432;DHT22;23292;51.300;6.252;2022-10-16T04:58:00;11.80;99.90
37432;DHT22;23292;51.300;6.252;2022-10-16T05:00:27;11.90;99.90
37432;DHT22;23292;51.300;6.252;2022-10-16T05:02:54;11.90;99.90
37432;DHT22;23292;51.300;6.252;2022-10-16T05:05:21;11.80;99.90
37432;DHT22;23292;51.300;6.252;2022-10-16T05:07:48;11.90;99.90
37432;DHT22;23292;51.300;6.252;2022-10-16T05:10:16;11.90;99.90
37432;DHT22;23292;51.300;6.252;2022-10-16T05:12:42;11.90;99.90
37432;DHT22;23292;51.300;6.252;2022-10-16T05:15:09;11.90;99.90
37432;DHT22;23292;51.300;6.252;2022-10-16T05:17:36;11.90;99.90
37432;DHT22;23292;51.300;6.252;2022-10-16T05:20:11;11.90;99.90
37432;DHT22;23292;51.300;6.252;2022-10-16T05:22:38;11.90;99.90
37432;DHT22;23292;51.300;6.252;2022-10-16T05:25:05;11.90;99.90
37432;DHT22;23292;51.300;6.252;2022-10-16T05:27:32;11.90;99.90
37432;DHT22;23292;51.300;6.252;2022-10-16T05:29:59;11.90;99.90
37432;DHT22;23292;51.300;6.252;2022-10-16T05:32:25;11.90;99.90
37432;DHT22;23292;51.300;6.252;2022-10-16T05:34:52;11.90;99.90
37432;DHT22;23292;51.300;6.252;2022-10-16T05:37:19;11.80;99.90
37432;DHT22;23292;51.300;6.252;2022-10-16T05:39:45;11.80;99.90
37432;DHT22;23292;51.300;6.252;2022-10-16T05:42:12;11.80;99.90
37432;DHT22;23292;51.300;6.252;2022-10-16T05:44:39;11.70;99.90
37432;DHT22;23292;51.300;6.252;2022-10-16T05:47:06;11.70;99.90
37432;DHT22;23292;51.300;6.252;2022-10-16T05:49:33;11.60;99.90
37432;DHT22;23292;51.300;6.252;2022-10-16T05:52:06;11.60;99.90
37432;DHT22;23292;51.300;6.252;2022-10-16T05:54:32;11.70;99.90
37432;DHT22;23292;51.300;6.252;2022-10-16T05:56:59;11.60;99.90
37432;DHT22;23292;51.300;6.252;2022-10-16T05:59:26;11.60;99.90
37432;DHT22;23292;51.300;6.252;2022-10-16T06:01:52;11.50;99.90
37432;DHT22;23292;51.300;6.252;2022-10-16T06:04:20;11.50;99.90
37432;DHT22;23292;51.300;6.252;2022-10-16T06:06:46;11.60;99.90
37432;DHT22;23292;51.300;6.252;2022-10-16T06:09:13;11.50;99.90
37432;DHT22;23292;51.300;6.252;2022-10-16T06:11:40;11.60;99.90
37432;DHT22;23292;51.300;6.252;2022-10-16T06:14:08;11.60;99.90
37432;DHT22;23292;51.300;6.252;2022-10-16T06:16:36;11.60;99.90
37432;DHT22;23292;51.300;6.252;2022-10-16T06:19:03;11.60;99.90
37432;DHT22;23292;51.300;6.252;2022-10-16T06:21:33;11.60;99.90
37432;DHT22;23292;51.300;6.252;2022-10-16T06:23:59;11.60;99.90
37432;DHT22;23292;51.300;6.252;2022-10-16T06:26:28;11.70;99.90
37432;DHT22;23292;51.300;6.252;2022-10-16T06:28:56;11.70;99.90
37432;DHT22;23292;51.300;6.252;2022-10-16T06:31:26;11.80;99.90
37432;DHT22;23292;51.300;6.252;2022-10-16T06:33:54;11.80;99.90
37432;DHT22;23292;51.300;6.252;2022-10-16T06:36:22;11.80;99.90
37432;DHT22;23292;51.300;6.252;2022-10-16T06:38:49;11.70;99.90
37432;DHT22;23292;51.300;6.252;2022-10-16T06:41:18;11.70;99.90
37432;DHT22;23292;51.300;6.252;2022-10-16T06:43:46;11.70;99.90
37432;DHT22;23292;51.300;6.252;2022-10-16T06:46:15;11.70;99.90
37432;DHT22;23292;51.300;6.252;2022-10-16T06:48:42;11.80;99.90
37432;DHT22;23292;51.300;6.252;2022-10-16T06:51:14;11.80;99.90
37432;DHT22;23292;51.300;6.252;2022-10-16T06:53:44;11.80;99.90
37432;DHT22;23292;51.300;6.252;2022-10-16T06:56:30;11.80;99.90
37432;DHT22;23292;51.300;6.252;2022-10-16T06:58:58;11.80;99.90
37432;DHT22;23292;51.300;6.252;2022-10-16T07:01:26;11.70;99.90
37432;DHT22;23292;51.300;6.252;2022-10-16T07:03:53;11.80;99.90
37432;DHT22;23292;51.300;6.252;2022-10-16T07:06:23;11.70;99.90
37432;DHT22;23292;51.300;6.252;2022-10-16T07:08:51;11.70;99.90
37432;DHT22;23292;51.300;6.252;2022-10-16T07:11:22;11.70;99.90
37432;DHT22;23292;51.300;6.252;2022-10-16T07:13:50;11.70;99.90
37432;DHT22;23292;51.300;6.252;2022-10-16T07:16:29;11.70;99.90
37432;DHT22;23292;51.300;6.252;2022-10-16T07:18:58;11.80;99.90
37432;DHT22;23292;51.300;6.252;2022-10-16T07:21:29;12.00;99.90
37432;DHT22;23292;51.300;6.252;2022-10-16T07:23:58;12.70;99.90
37432;DHT22;23292;51.300;6.252;2022-10-16T07:26:27;12.10;99.90
37432;DHT22;23292;51.300;6.252;2022-10-16T07:28:54;12.10;99.90
37432;DHT22;23292;51.300;6.252;2022-10-16T07:31:22;12.20;99.90
37432;DHT22;23292;51.300;6.252;2022-10-16T07:33:49;12.40;99.90
37432;DHT22;23292;51.300;6.252;2022-10-16T07:36:18;12.50;99.90
37432;DHT22;23292;51.300;6.252;2022-10-16T07:38:45;12.70;99.90
37432;DHT22;23292;51.300;6.252;2022-10-16T07:41:14;12.80;99.90
37432;DHT22;23292;51.300;6.252;2022-10-16T07:43:49;13.00;99.90
37432;DHT22;23292;51.300;6.252;2022-10-16T07:46:17;13.10;99.90
37432;DHT22;23292;51.300;6.252;2022-10-16T07:48:45;13.20;99.90
37432;DHT22;23292;51.300;6.252;2022-10-16T07:51:16;13.40;99.90
37432;DHT22;23292;51.300;6.252;2022-10-16T07:53:43;13.50;99.90
37432;DHT22;23292;51.300;6.252;2022-10-16T07:56:10;13.60;99.90
37432;DHT22;23292;51.300;6.252;2022-10-16T07:58:38;13.80;99.90
37432;DHT22;23292;51.300;6.252;2022-10-16T08:01:07;13.90;99.90
37432;DHT22;23292;51.300;6.252;2022-10-16T08:03:34;14.00;99.90
37432;DHT22;23292;51.300;6.252;2022-10-16T08:06:02;14.10;99.90
37432;DHT22;23292;51.300;6.252;2022-10-16T08:08:30;14.50;99.90
37432;DHT22;23292;51.300;6.252;2022-10-16T08:10:56;14.50;99.90
37432;DHT22;23292;51.300;6.252;2022-10-16T08:13:23;14.70;99.90
37432;DHT22;23292;51.300;6.252;2022-10-16T08:15:50;14.80;99.90
37432;DHT22;23292;51.300;6.252;2022-10-16T08:18:17;14.90;99.90
37432;DHT22;23292;51.300;6.252;2022-10-16T08:20:43;15.10;99.90
37432;DHT22;23292;51.300;6.252;2022-10-16T08:23:13;15.20;99.90
37432;DHT22;23292;51.300;6.252;2022-10-16T08:25:41;15.40;99.90
37432;DHT22;23292;51.300;6.252;2022-10-16T08:28:09;15.50;99.90
37432;DHT22;23292;51.300;6.252;2022-10-16T08:30:37;15.70;99.90
37432;DHT22;23292;51.300;6.252;2022-10-16T08:33:04;15.70;99.90
37432;DHT22;23292;51.300;6.252;2022-10-16T08:35:31;15.80;99.90
37432;DHT22;23292;51.300;6.252;2022-10-16T08:37:57;15.90;99.90
37432;DHT22;23292;51.300;6.252;2022-10-16T08:40:30;16.00;99.90
37432;DHT22;23292;51.300;6.252;2022-10-16T08:43:16;16.20;99.90
37432;DHT22;23292;51.300;6.252;2022-10-16T08:48:49;16.30;99.90
37432;DHT22;23292;51.300;6.252;2022-10-16T08:51:45;16.50;99.90
37432;DHT22;23292;51.300;6.252;2022-10-16T08:54:35;16.60;99.90
37432;DHT22;23292;51.300;6.252;2022-10-16T08:57:16;16.60;99.90
37432;DHT22;23292;51.300;6.252;2022-10-16T08:59:48;16.70;99.90
37432;DHT22;23292;51.300;6.252;2022-10-16T09:02:37;16.70;99.90
37432;DHT22;23292;51.300;6.252;2022-10-16T09:05:24;16.80;99.90
37432;DHT22;23292;51.300;6.252;2022-10-16T09:16:38;17.00;99.90
37432;DHT22;23292;51.300;6.252;2022-10-16T09:19:23;17.10;99.90
37432;DHT22;23292;51.300;6.252;2022-10-16T09:21:50;17.20;99.90
37432;DHT22;23292;51.300;6.252;2022-10-16T09:24:25;17.30;99.90
37432;DHT22;23292;51.300;6.252;2022-10-16T09:26:54;17.30;99.90
37432;DHT22;23292;51.300;6.252;2022-10-16T09:29:23;17.30;99.90
37432;DHT22;23292;51.300;6.252;2022-10-16T09:31:53;17.40;99.90
37432;DHT22;23292;51.300;6.252;2022-10-16T09:34:36;17.50;99.90
37432;DHT22;23292;51.300;6.252;2022-10-16T09:37:09;17.60;99.90
37432;DHT22;23292;51.300;6.252;2022-10-16T09:39:54;17.50;99.90
37432;DHT22;23292;51.300;6.252;2022-10-16T09:42:31;17.50;99.90
37432;DHT22;23292;51.300;6.252;2022-10-16T09:44:58;17.60;99.90
37432;DHT22;23292;51.300;6.252;2022-10-16T09:47:26;17.70;99.90
37432;DHT22;23292;51.300;6.252;2022-10-16T09:49:56;17.80;99.90
37432;DHT22;23292;51.300;6.252;2022-10-16T09:52:26;17.80;99.90
37432;DHT22;23292;51.300;6.252;2022-10-16T09:54:55;17.90;99.90
37432;DHT22;23292;51.300;6.252;2022-10-16T09:57:24;18.00;99.90
37432;DHT22;23292;51.300;6.252;2022-10-16T09:59:53;18.20;99.90
37432;DHT22;23292;51.300;6.252;2022-10-16T10:02:30;18.20;99.90
37432;DHT22;23292;51.300;6.252;2022-10-16T10:04:57;18.20;99.90
37432;DHT22;23292;51.300;6.252;2022-10-16T10:07:39;18.10;99.90
37432;DHT22;23292;51.300;6.252;2022-10-16T10:10:41;18.40;99.90
37432;DHT22;23292;51.300;6.252;2022-10-16T10:13:23;18.40;99.90
37432;DHT22;23292;51.300;6.252;2022-10-16T10:15:51;18.40;99.90
37432;DHT22;23292;51.300;6.252;2022-10-16T10:18:19;18.30;99.90
37432;DHT22;23292;51.300;6.252;2022-10-16T10:21:01;18.30;99.90
37432;DHT22;23292;51.300;6.252;2022-10-16T10:23:29;18.40;99.90
37432;DHT22;23292;51.300;6.252;2022-10-16T10:26:15;18.60;99.90
37432;DHT22;23292;51.300;6.252;2022-10-16T10:29:06;18.70;99.90
37432;DHT22;23292;51.300;6.252;2022-10-16T10:31:51;18.90;99.90
37432;DHT22;23292;51.300;6.252;2022-10-16T10:34:49;19.00;99.90
37432;DHT22;23292;51.300;6.252;2022-10-16T10:37:25;19.20;99.90
37432;DHT22;23292;51.300;6.252;2022-10-16T10:42:53;19.40;99.90
37432;DHT22;23292;51.300;6.252;2022-10-16T10:45:48;19.30;99.90
37432;DHT22;23292;51.300;6.252;2022-10-16T10:51:00;19.40;99.90
37432;DHT22;23292;51.300;6.252;2022-10-16T10:53:55;19.10;99.90
37432;DHT22;23292;51.300;6.252;2022-10-16T10:56:43;18.90;99.90
37432;DHT22;23292;51.300;6.252;2022-10-16T11:04:45;19.00;99.90
37432;DHT22;23292;51.300;6.252;2022-10-16T11:07:18;19.10;99.90
37432;DHT22;23292;51.300;6.252;2022-10-16T11:09:57;19.20;99.90
37432;DHT22;23292;51.300;6.252;2022-10-16T11:12:32;19.30;99.90
37432;DHT22;23292;51.300;6.252;2022-10-16T11:17:59;19.50;99.90
37432;DHT22;23292;51.300;6.252;2022-10-16T11:20:34;19.50;99.90
37432;DHT22;23292;51.300;6.252;2022-10-16T11:23:15;19.50;99.90
37432;DHT22;23292;51.300;6.252;2022-10-16T11:25:43;19.30;99.90
37432;DHT22;23292;51.300;6.252;2022-10-16T11:28:15;19.30;99.90
37432;DHT22;23292;51.300;6.252;2022-10-16T11:35:56;20.10;99.90
37432;DHT22;23292;51.300;6.252;2022-10-16T11:43:43;20.60;99.90
37432;DHT22;23292;51.300;6.252;2022-10-16T11:46:19;20.70;99.90
37432;DHT22;23292;51.300;6.252;2022-10-16T11:49:11;20.80;99.90
37432;DHT22;23292;51.300;6.252;2022-10-16T11:51:43;20.60;99.90
37432;DHT22;23292;51.300;6.252;2022-10-16T11:56:45;20.60;99.90
37432;DHT22;23292;51.300;6.252;2022-10-16T11:59:34;20.40;99.90
37432;DHT22;23292;51.300;6.252;2022-10-16T12:05:18;20.00;99.90
37432;DHT22;23292;51.300;6.252;2022-10-16T12:07:55;19.80;99.90
37432;DHT22;23292;51.300;6.252;2022-10-16T12:10:27;19.70;99.90
37432;DHT22;23292;51.300;6.252;2022-10-16T12:12:54;19.50;99.90
37432;DHT22;23292;51.300;6.252;2022-10-16T12:15:31;19.40;99.90
37432;DHT22;23292;51.300;6.252;2022-10-16T12:18:23;19.40;99.90
37432;DHT22;23292;51.300;6.252;2022-10-16T12:20:57;19.30;99.90
37432;DHT22;23292;51.300;6.252;2022-10-16T12:23:46;19.40;99.90
37432;DHT22;23292;51.300;6.252;2022-10-16T12:26:13;19.60;99.90
37432;DHT22;23292;51.300;6.252;2022-10-16T12:28:40;19.50;99.90
37432;DHT22;23292;51.300;6.252;2022-10-16T12:31:09;19.40;99.90
37432;DHT22;23292;51.300;6.252;2022-10-16T12:33:41;19.30;99.90
37432;DHT22;23292;51.300;6.252;2022-10-16T12:36:29;19.50;99.90
37432;DHT22;23292;51.300;6.252;2022-10-16T12:38:56;19.70;99.90
37432;DHT22;23292;51.300;6.252;2022-10-16T12:41:34;19.90;99.90
37432;DHT22;23292;51.300;6.252;2022-10-16T12:44:02;20.10;99.90
37432;DHT22;23292;51.300;6.252;2022-10-16T12:51:41;19.50;99.90
37432;DHT22;23292;51.300;6.252;2022-10-16T12:54:31;19.30;99.90
37432;DHT22;23292;51.300;6.252;2022-10-16T12:59:45;19.40;99.90
37432;DHT22;23292;51.300;6.252;2022-10-16T13:08:43;19.70;99.90
37432;DHT22;23292;51.300;6.252;2022-10-16T13:23:00;19.30;99.90
37432;DHT22;23292;51.300;6.252;2022-10-16T13:28:07;19.30;99.90
37432;DHT22;23292;51.300;6.252;2022-10-16T13:30:43;19.50;99.90
37432;DHT22;23292;51.300;6.252;2022-10-16T13:35:54;19.60;99.90
37432;DHT22;23292;51.300;6.252;2022-10-16T13:38:22;19.70;99.90
37432;DHT22;23292;51.300;6.252;2022-10-16T13:40:50;19.80;99.90
37432;DHT22;23292;51.300;6.252;2022-10-16T13:43:19;19.80;99.90
37432;DHT22;23292;51.300;6.252;2022-10-16T13:46:14;19.80;99.90
37432;DHT22;23292;51.300;6.252;2022-10-16T13:48:41;19.80;99.90
37432;DHT22;23292;51.300;6.252;2022-10-16T13:51:18;19.70;99.90
37432;DHT22;23292;51.300;6.252;2022-10-16T13:53:46;19.60;99.90
37432;DHT22;23292;51.300;6.252;2022-10-16T13:56:15;19.60;99.90
37432;DHT22;23292;51.300;6.252;2022-10-16T13:58:43;19.50;99.90
37432;DHT22;23292;51.300;6.252;2022-10-16T14:01:15;19.50;99.90
37432;DHT22;23292;51.300;6.252;2022-10-16T14:03:43;19.50;99.90
37432;DHT22;23292;51.300;6.252;2022-10-16T14:06:19;19.30;99.90
37432;DHT22;23292;51.300;6.252;2022-10-16T14:09:09;19.10;99.90
37432;DHT22;23292;51.300;6.252;2022-10-16T14:11:49;19.10;99.90
37432;DHT22;23292;51.300;6.252;2022-10-16T14:14:18;19.10;99.90
37432;DHT22;23292;51.300;6.252;2022-10-16T14:16:46;19.10;99.90
37432;DHT22;23292;51.300;6.252;2022-10-16T14:19:25;19.10;99.90
37432;DHT22;23292;51.300;6.252;2022-10-16T14:21:53;19.10;99.90
37432;DHT22;23292;51.300;6.252;2022-10-16T14:24:33;19.00;99.90
37432;DHT22;23292;51.300;6.252;2022-10-16T14:27:01;18.90;99.90
37432;DHT22;23292;51.300;6.252;2022-10-16T14:29:29;18.80;99.90
37432;DHT22;23292;51.300;6.252;2022-10-16T14:32:04;18.70;99.90
37432;DHT22;23292;51.300;6.252;2022-10-16T14:37:27;18.60;99.90
37432;DHT22;23292;51.300;6.252;2022-10-16T14:39:55;18.60;99.90
37432;DHT22;23292;51.300;6.252;2022-10-16T14:42:24;18.40;99.90
37432;DHT22;23292;51.300;6.252;2022-10-16T14:44:53;18.40;99.90
37432;DHT22;23292;51.300;6.252;2022-10-16T14:47:25;18.30;99.90
37432;DHT22;23292;51.300;6.252;2022-10-16T14:49:54;18.20;99.90
37432;DHT22;23292;51.300;6.252;2022-10-16T14:52:22;18.10;99.90
37432;DHT22;23292;51.300;6.252;2022-10-16T14:54:50;18.10;99.90
37432;DHT22;23292;51.300;6.252;2022-10-16T14:57:18;18.00;99.90
37432;DHT22;23292;51.300;6.252;2022-10-16T14:59:47;17.80;99.90
37432;DHT22;23292;51.300;6.252;2022-10-16T15:02:27;18.00;99.90
37432;DHT22;23292;51.300;6.252;2022-10-16T15:04:56;17.90;99.90
37432;DHT22;23292;51.300;6.252;2022-10-16T15:07:23;17.80;99.90
37432;DHT22;23292;51.300;6.252;2022-10-16T15:09:51;17.90;99.90
37432;DHT22;23292;51.300;6.252;2022-10-16T15:12:19;17.90;99.90
37432;DHT22;23292;51.300;6.252;2022-10-16T15:14:46;17.90;99.90
37432;DHT22;23292;51.300;6.252;2022-10-16T15:17:13;17.80;99.90
37432;DHT22;23292;51.300;6.252;2022-10-16T15:19:45;17.80;99.90
37432;DHT22;23292;51.300;6.252;2022-10-16T15:22:12;17.70;99.90
37432;DHT22;23292;51.300;6.252;2022-10-16T15:24:41;17.70;99.90
37432;DHT22;23292;51.300;6.252;2022-10-16T15:27:08;17.70;99.90
37432;DHT22;23292;51.300;6.252;2022-10-16T15:29:35;17.70;99.90
37432;DHT22;23292;51.300;6.252;2022-10-16T15:32:02;17.70;99.90
37432;DHT22;23292;51.300;6.252;2022-10-16T15:34:28;17.70;99.90
37432;DHT22;23292;51.300;6.252;2022-10-16T15:36:55;17.70;99.90
37432;DHT22;23292;51.300;6.252;2022-10-16T15:39:24;17.60;99.90
37432;DHT22;23292;51.300;6.252;2022-10-16T15:41:50;17.70;99.90
37432;DHT22;23292;51.300;6.252;2022-10-16T15:44:20;17.60;99.90
37432;DHT22;23292;51.300;6.252;2022-10-16T15:46:49;17.50;99.90
37432;DHT22;23292;51.300;6.252;2022-10-16T15:49:16;17.40;99.90
37432;DHT22;23292;51.300;6.252;2022-10-16T15:51:42;17.50;99.90
37432;DHT22;23292;51.300;6.252;2022-10-16T15:54:09;17.50;99.90
37432;DHT22;23292;51.300;6.252;2022-10-16T15:56:36;17.40;99.90
37432;DHT22;23292;51.300;6.252;2022-10-16T15:59:04;17.40;99.90
37432;DHT22;23292;51.300;6.252;2022-10-16T16:01:35;17.30;99.90
37432;DHT22;23292;51.300;6.252;2022-10-16T16:04:02;17.20;99.90
37432;DHT22;23292;51.300;6.252;2022-10-16T16:06:45;17.10;99.90
37432;DHT22;23292;51.300;6.252;2022-10-16T16:09:13;17.10;99.90
37432;DHT22;23292;51.300;6.252;2022-10-16T16:11:41;17.10;99.90
37432;DHT22;23292;51.300;6.252;2022-10-16T16:14:10;17.00;99.90
37432;DHT22;23292;51.300;6.252;2022-10-16T16:16:39;16.90;99.90
37432;DHT22;23292;51.300;6.252;2022-10-16T16:19:05;16.90;99.90
37432;DHT22;23292;51.300;6.252;2022-10-16T16:21:37;16.80;99.90
37432;DHT22;23292;51.300;6.252;2022-10-16T16:24:04;16.70;99.90
37432;DHT22;23292;51.300;6.252;2022-10-16T16:26:34;16.70;99.90
37432;DHT22;23292;51.300;6.252;2022-10-16T16:29:04;16.70;99.90
37432;DHT22;23292;51.300;6.252;2022-10-16T16:31:31;16.50;99.90
37432;DHT22;23292;51.300;6.252;2022-10-16T16:33:58;16.50;99.90
37432;DHT22;23292;51.300;6.252;2022-10-16T16:36:25;16.40;99.90
37432;DHT22;23292;51.300;6.252;2022-10-16T16:38:52;16.30;99.90
37432;DHT22;23292;51.300;6.252;2022-10-16T16:41:22;16.10;99.90
37432;DHT22;23292;51.300;6.252;2022-10-16T16:43:49;16.00;99.90
37432;DHT22;23292;51.300;6.252;2022-10-16T16:46:18;16.00;99.90
37432;DHT22;23292;51.300;6.252;2022-10-16T16:48:45;16.00;99.90
37432;DHT22;23292;51.300;6.252;2022-10-16T16:51:15;15.90;99.90
37432;DHT22;23292;51.300;6.252;2022-10-16T16:53:44;15.90;99.90
37432;DHT22;23292;51.300;6.252;2022-10-16T16:56:11;15.90;99.90
37432;DHT22;23292;51.300;6.252;2022-10-16T16:58:38;15.70;99.90
37432;DHT22;23292;51.300;6.252;2022-10-16T17:01:05;15.80;99.90
37432;DHT22;23292;51.300;6.252;2022-10-16T17:03:48;15.90;99.90
37432;DHT22;23292;51.300;6.252;2022-10-16T17:06:17;15.80;99.90
37432;DHT22;23292;51.300;6.252;2022-10-16T17:08:47;15.80;99.90
37432;DHT22;23292;51.300;6.252;2022-10-16T17:11:20;15.70;99.90
37432;DHT22;23292;51.300;6.252;2022-10-16T17:13:48;15.70;99.90
37432;DHT22;23292;51.300;6.252;2022-10-16T17:16:22;15.70;99.90
37432;DHT22;23292;51.300;6.252;2022-10-16T17:18:49;15.70;99.90
37432;DHT22;23292;51.300;6.252;2022-10-16T17:21:16;15.70;99.90